MMOX

Xoxocotlán International Airport

Airport
ICAO code
MMOX
IATA Code
OAX
Summary
ICAO Region
CARSAM
ICAO Territory
Location

San Juan Bautista la Raya, Oaxaca

Serving
Oaxaca
Elevation
4989 ft
Coordinates
17° 0' 4" N , 96° 43' 31" W
KCC
Metar
MMOX 181140Z 00000KT 6SM FEW080 SCT220 17/15 A3015 RMK SLP072 5//// 919 8/031 HZY

Xoxocotlán International Airport is an international airport located at Oaxaca, Oaxaca, Mexico.

Climatology

Tropical Savannah Climate (Köppen climate classification Aw)

Runways

Designator Length Width Surface Rops
1/19 2450 45 ASP No/No

Airport map

Aerial View

SKYbrary Partners:

Safety knowledge contributed by: